WetterOnline ( http://www.wetteronline.ch )

Wetter aktuell Ulm

Aktuelles Wetter: Ulm-Mähringen (592m)

6-stündlich | Neueste Meldungen
Ortszeit Temperatur Wetter
Di, 14.08. 8:00 14.8° C wolkenlos
Di, 14.08. 2:00 16.4° C bewölkt
Mo, 13.08. 20:00 18.5° C bewölkt
Mo, 13.08. 14:00 23.4° C bewölkt
Mo, 13.08. 8:00 18.2° C wolkig
Mo, 13.08. 2:00 13.5° C wolkenlos
So, 12.08. 20:00 27.1° C wolkenlos
So, 12.08. 14:00 24.3° C fast wolkenlos
Ortszeit Temperatur Wetter
Di, 14.08. 8:00 14.8° C wolkenlos
Di, 14.08. 7:50 14.8° C wolkenlos
Di, 14.08. 7:40 14.2° C wolkenlos
Di, 14.08. 7:30 13.4° C fast wolkenlos
Di, 14.08. 7:20 13.4° C fast wolkenlos
Di, 14.08. 7:10 13.0° C leicht bewölkt
Di, 14.08. 7:00 13.1° C leicht bewölkt
Di, 14.08. 6:30 13.3° C wolkig
Di, 14.08. 6:00 13.9° C wolkig
Di, 14.08. 5:30 13.2° C wolkig
Di, 14.08. 5:00 14.2° C wolkig
Ortszeit Relative Feuchte Sichtweite
Di, 14.08. 8:00 88% 65 km
Di, 14.08. 2:00 91% 50 km
Mo, 13.08. 20:00 77% 70 km
Mo, 13.08. 14:00 53% 50 km
Mo, 13.08. 8:00 66% 55 km
Mo, 13.08. 2:00 78% 70 km
So, 12.08. 20:00 29% 70 km
So, 12.08. 14:00 34% 50 km
Ortszeit Relative Feuchte Sichtweite
Di, 14.08. 8:00 88% 65 km
Di, 14.08. 7:50 88% -
Di, 14.08. 7:40 90% -
Di, 14.08. 7:30 94% 55 km
Di, 14.08. 7:20 94% -
Di, 14.08. 7:10 96% -
Di, 14.08. 7:00 96% 55 km
Di, 14.08. 6:30 94% 55 km
Di, 14.08. 6:00 92% 65 km
Di, 14.08. 5:30 95% 35 km
Di, 14.08. 5:00 94% 45 km
Ortszeit Niederschlagsmenge Niederschlagsart
Di, 14.08. 8:00 1 l/m2 in 12 Std. -
Di, 14.08. 2:00 1 l/m2 in 6 Std. Regen
Mo, 13.08. 20:00 0.8 l/m2 in 12 Std. Regen
Mo, 13.08. 14:00 0.1 l/m2 in 6 Std. Regen
Mo, 13.08. 8:00 0.0 l/m2 in 12 Std. -
Mo, 13.08. 2:00 0.0 l/m2 in 6 Std. -
So, 12.08. 20:00 0.0 l/m2 in 12 Std. -
So, 12.08. 14:00 0.0 l/m2 in 6 Std. -
Ortszeit Niederschlagsmenge Niederschlagsart
Di, 14.08. 8:00 0.0 l/m2 in 1 Std. -
Di, 14.08. 7:50 keine Meldung -
Di, 14.08. 7:40 keine Meldung -
Di, 14.08. 7:30 0.0 l/m2 in 1 Std. -
Di, 14.08. 7:20 keine Meldung -
Di, 14.08. 7:10 keine Meldung -
Di, 14.08. 7:00 0.0 l/m2 in 1 Std. -
Di, 14.08. 6:30 0.0 l/m2 in 1 Std. -
Di, 14.08. 6:00 0.0 l/m2 in 1 Std. -
Di, 14.08. 5:30 0.0 l/m2 in 1 Std. -
Di, 14.08. 5:00 0.0 l/m2 in 1 Std. -
Ortszeit Stärke Spitze Richtung
km/h Bft. km/h Grad Sektor
Di, 14.08. 8:00 7 2 14 230° SW
Di, 14.08. 2:00 7 2 22 230° SW
Mo, 13.08. 20:00 13 3 28 300° NW
Mo, 13.08. 14:00 13 3 35 300° NW
Mo, 13.08. 8:00 6 1 11 210° SW
Mo, 13.08. 2:00 0 0 11 - -
So, 12.08. 20:00 7 2 29 260° W
So, 12.08. 14:00 7 2 22 10° N
Ortszeit Stärke Spitze Richtung
km/h Bft. km/h Grad Sektor
Di, 14.08. 8:00 7 2 11 230° SW
Di, 14.08. 7:50 7 2 - 230° SW
Di, 14.08. 7:40 7 2 - 240° SW
Di, 14.08. 7:30 4 1 7 250° W
Di, 14.08. 7:20 4 1 - 250° W
Di, 14.08. 7:10 4 1 - 270° W
Di, 14.08. 7:00 4 1 11 310° NW
Di, 14.08. 6:30 6 1 11 270° W
Di, 14.08. 6:00 7 2 14 240° SW
Di, 14.08. 5:30 4 1 14 300° NW
Di, 14.08. 5:00 9 2 15 210° SW
Ortszeit Untergrenze Bedeckung Gattung
total tief tief mittel hoch
Di, 14.08. 8:00 - 0/8 0/8 - - -
Di, 14.08. 2:00 1140 m 8/8 7/8 - - -
Mo, 13.08. 20:00 990 m 8/8 5/8 - - -
Mo, 13.08. 14:00 2100 m 8/8 7/8 - - -
Mo, 13.08. 8:00 2700 m 7/8 5/8 - - -
Mo, 13.08. 2:00 - 0/8 0/8 - - -
So, 12.08. 20:00 - 0/8 0/8 - - -
So, 12.08. 14:00 10500 m 1/8 0/8 - - -
Ortszeit Bedeckungsgrad in Achtel und Wolkenuntergrenze
Di, 14.08. 8:00 keine Wolken
Di, 14.08. 7:50 keine Wolken
Di, 14.08. 7:40 keine Wolken
Di, 14.08. 7:30 1(1800m)
Di, 14.08. 7:20 1(1800m)
Di, 14.08. 7:10 2(1800m) 3(8700m)
Di, 14.08. 7:00 1(1800m) 5(9000m)
Di, 14.08. 6:30 8(9000m)
Di, 14.08. 6:00 3(2700m) 7(8700m)
Di, 14.08. 5:30 2(2700m) 8(7500m) 8(8100m)
Di, 14.08. 5:00 2(1800m) 7(6600m) 8(8100m)
Ortszeit Luftdruck NN (hPa) Tendenz (hPa in 3 Std.)
Di, 14.08. 8:00 1015 + 1,4
Di, 14.08. 2:00 1013 + 0,7
Mo, 13.08. 20:00 1011 + 0,1
Mo, 13.08. 14:00 1010 0,0
Mo, 13.08. 8:00 1010 - 0,2
Mo, 13.08. 2:00 1013 - 0,7
So, 12.08. 20:00 1010 - 1,5
So, 12.08. 14:00 1015 - 1,5
Ortszeit Luftdruck NN (hPa) Tendenz (hPa in 3 Std.)
Di, 14.08. 8:00 1015 + 1,4
Di, 14.08. 7:50 1015 keine Meldung
Di, 14.08. 7:40 1015 keine Meldung
Di, 14.08. 7:30 1015 + 1,0
Di, 14.08. 7:20 1015 keine Meldung
Di, 14.08. 7:10 1015 keine Meldung
Di, 14.08. 7:00 1015 + 1,0
Di, 14.08. 6:30 1014 + 0,5
Di, 14.08. 6:00 1014 + 0,3
Di, 14.08. 5:30 1014 + 0,3
Di, 14.08. 5:00 1013 + 0,2
Ortszeit Schneehöhe (cm)
Di, 14.08. 8:00 -
Di, 14.08. 2:00 -
Mo, 13.08. 20:00 -
Mo, 13.08. 14:00 -
Mo, 13.08. 8:00 -
Mo, 13.08. 2:00 -
So, 12.08. 20:00 -
So, 12.08. 14:00 -
Ortszeit Schneehöhe (cm)
Di, 14.08. 8:00 -
Di, 14.08. 7:50 -
Di, 14.08. 7:40 -
Di, 14.08. 7:30 -
Di, 14.08. 7:20 -
Di, 14.08. 7:10 -
Di, 14.08. 7:00 -
Di, 14.08. 6:30 -
Di, 14.08. 6:00 -
Di, 14.08. 5:30 -
Di, 14.08. 5:00 -
Link zu dieser Seite / Seite empfehlen

Das Wetter in ...